createdAt,value
2018-11-20T00:02:20.848Z,9.33
2018-11-20T00:05:09.468Z,9.57
2018-11-20T00:08:03.995Z,9.77
2018-11-20T00:10:59.088Z,8.67
2018-11-20T00:13:59.261Z,9.17
2018-11-20T00:16:33.960Z,8.80
2018-11-20T00:19:20.981Z,8.50
2018-11-20T00:22:07.776Z,9.50
2018-11-20T00:25:10.958Z,8.63
2018-11-20T00:27:58.088Z,8.10
2018-11-20T00:30:45.237Z,8.90
2018-11-20T00:33:33.960Z,9.23
2018-11-20T00:36:28.307Z,8.67
2018-11-20T00:39:19.685Z,10.17
2018-11-20T00:42:20.531Z,9.50
2018-11-20T00:45:11.541Z,10.13
2018-11-20T00:48:08.768Z,9.93
2018-11-20T00:50:57.166Z,10.87
2018-11-20T00:53:43.992Z,11.07
2018-11-20T00:57:10.643Z,11.33
2018-11-20T00:59:59.603Z,11.20
2018-11-20T01:02:57.017Z,10.63
2018-11-20T01:05:44.336Z,11.07
2018-11-20T01:08:41.786Z,11.20
2018-11-20T01:11:32.140Z,10.97
2018-11-20T01:14:23.234Z,11.60
2018-11-20T01:17:08.114Z,10.57
2018-11-20T01:19:55.354Z,10.57
2018-11-20T01:22:42.050Z,11.17
2018-11-20T01:25:28.951Z,10.53
2018-11-20T01:28:32.360Z,10.93
2018-11-20T01:31:18.443Z,11.63
2018-11-20T01:34:09.390Z,10.97
2018-11-20T01:36:56.835Z,11.43
2018-11-20T01:40:00.298Z,11.23
2018-11-20T01:42:47.349Z,11.87
2018-11-20T01:45:34.532Z,11.80
2018-11-20T01:48:35.089Z,12.17
2018-11-20T01:51:22.559Z,11.43
2018-11-20T01:54:16.615Z,11.33
2018-11-20T01:57:19.971Z,12.67
2018-11-20T02:00:07.024Z,11.67
2018-11-20T02:02:48.031Z,11.67
2018-11-20T02:05:48.201Z,11.90
2018-11-20T02:08:48.423Z,12.30
2018-11-20T02:11:36.787Z,12.57
2018-11-20T02:14:32.219Z,12.67
2018-11-20T02:17:21.403Z,14.20
2018-11-20T02:20:08.431Z,13.87
2018-11-20T02:22:55.792Z,13.37
2018-11-20T02:25:42.952Z,14.07
2018-11-20T02:28:49.555Z,13.33
2018-11-20T02:31:29.480Z,13.67
2018-11-20T02:34:27.672Z,13.27
2018-11-20T02:37:15.277Z,13.03
2018-11-20T02:40:02.327Z,14.53
2018-11-20T02:43:02.920Z,12.93
2018-11-20T02:45:48.083Z,12.07
2018-11-20T02:48:42.336Z,13.70
2018-11-20T02:51:37.118Z,12.73
2018-11-20T02:54:24.274Z,12.20
2018-11-20T02:57:11.465Z,13.10
2018-11-20T02:59:57.512Z,13.43
2018-11-20T03:02:52.020Z,13.47
2018-11-20T03:05:39.074Z,13.60
2018-11-20T03:08:27.460Z,13.17
2018-11-20T03:11:23.999Z,14.13
2018-11-20T03:14:14.782Z,12.87
2018-11-20T03:17:18.598Z,13.07
2018-11-20T03:20:06.929Z,12.87
2018-11-20T03:22:54.142Z,13.63
2018-11-20T03:26:07.994Z,12.47
2018-11-20T03:28:58.569Z,13.20
2018-11-20T03:31:44.438Z,14.47
2018-11-20T03:34:30.395Z,13.63
2018-11-20T03:37:21.505Z,13.07
2018-11-20T03:40:13.202Z,13.40
2018-11-20T03:43:01.670Z,13.90
2018-11-20T03:45:44.563Z,14.20
2018-11-20T03:48:48.004Z,13.70
2018-11-20T03:51:36.423Z,14.13
2018-11-20T03:54:28.581Z,13.47
2018-11-20T03:57:15.864Z,13.87
2018-11-20T04:00:09.161Z,14.60
2018-11-20T04:03:05.562Z,14.30
2018-11-20T04:05:52.773Z,13.40
2018-11-20T04:08:37.287Z,14.13
2018-11-20T04:11:26.019Z,14.67
2018-11-20T04:14:14.379Z,14.70
2018-11-20T04:17:01.416Z,14.00
2018-11-20T04:19:55.457Z,14.43
2018-11-20T04:22:46.736Z,13.77
2018-11-20T04:25:41.151Z,14.23
2018-11-20T04:28:28.188Z,15.13
2018-11-20T04:31:58.417Z,14.50
2018-11-20T04:34:37.833Z,14.53
2018-11-20T04:37:41.173Z,16.10
2018-11-20T04:40:28.195Z,15.40
2018-11-20T04:43:34.584Z,16.07
2018-11-20T04:46:22.958Z,16.17
2018-11-20T04:49:11.351Z,17.40
2018-11-20T04:52:09.104Z,16.43
2018-11-20T04:55:06.725Z,16.53
2018-11-20T04:58:04.048Z,17.63
2018-11-20T05:00:55.287Z,16.83
2018-11-20T05:03:53.046Z,19.20
2018-11-20T05:06:40.053Z,18.20
2018-11-20T05:09:28.454Z,18.63
2018-11-20T05:12:16.798Z,17.67
2018-11-20T05:15:14.025Z,18.60
2018-11-20T05:18:00.986Z,18.87
2018-11-20T05:20:52.341Z,20.53
2018-11-20T05:23:49.595Z,19.47
2018-11-20T05:26:36.502Z,19.10
2018-11-20T05:29:22.796Z,19.73
2018-11-20T05:32:10.040Z,19.50
2018-11-20T05:34:56.770Z,20.47
2018-11-20T05:37:45.102Z,19.47
2018-11-20T05:40:32.550Z,19.50
2018-11-20T05:43:19.483Z,21.00
2018-11-20T05:46:22.961Z,21.83
2018-11-20T05:49:20.479Z,20.93
2018-11-20T05:52:14.665Z,20.83
2018-11-20T05:55:05.785Z,21.17
2018-11-20T05:57:52.986Z,20.70
2018-11-20T06:00:53.583Z,19.63
2018-11-20T06:04:00.373Z,19.87
2018-11-20T06:07:00.517Z,20.47
2018-11-20T06:09:51.781Z,21.40
2018-11-20T06:12:38.503Z,20.50
2018-11-20T06:15:36.609Z,22.00
2018-11-20T06:18:27.777Z,22.03
2018-11-20T06:21:34.226Z,22.63
2018-11-20T06:24:23.090Z,23.10
2018-11-20T06:27:23.160Z,20.47
2018-11-20T06:30:07.812Z,23.33
2018-11-20T06:32:58.092Z,22.70
2018-11-20T06:35:52.382Z,24.30
2018-11-20T06:38:46.662Z,22.53
2018-11-20T06:41:35.029Z,23.47
2018-11-20T06:44:26.130Z,25.10
2018-11-20T06:47:26.678Z,23.83
2018-11-20T06:50:22.575Z,23.57
2018-11-20T06:53:06.133Z,23.40
2018-11-20T06:55:52.950Z,22.90
2018-11-20T06:58:39.960Z,23.47
2018-11-20T07:01:26.748Z,24.03
2018-11-20T07:04:15.090Z,23.33
2018-11-20T07:07:12.513Z,24.10
2018-11-20T07:10:03.740Z,24.27
2018-11-20T07:12:52.070Z,23.13
2018-11-20T07:15:43.239Z,24.63
2018-11-20T07:18:30.144Z,23.60
2018-11-20T07:21:27.726Z,24.20
2018-11-20T07:24:16.077Z,23.23
2018-11-20T07:27:03.396Z,23.33
2018-11-20T07:29:51.028Z,24.63
2018-11-20T07:32:51.817Z,23.83
2018-11-20T07:35:36.079Z,23.07
2018-11-20T07:38:23.896Z,23.73
2018-11-20T07:41:12.297Z,24.07
2018-11-20T07:44:03.499Z,24.20
2018-11-20T07:46:50.697Z,24.30
2018-11-20T07:49:35.953Z,23.90
2018-11-20T07:52:23.513Z,24.00
2018-11-20T07:55:15.075Z,23.13
2018-11-20T07:58:04.588Z,22.93
2018-11-20T08:00:51.811Z,22.97
2018-11-20T08:03:40.454Z,23.13
2018-11-20T08:06:31.504Z,23.47
2018-11-20T08:09:18.751Z,23.57
2018-11-20T08:12:07.734Z,24.63
2018-11-20T08:14:47.477Z,22.87
2018-11-20T08:17:36.122Z,23.30
2018-11-20T08:20:23.420Z,23.73
2018-11-20T08:23:12.419Z,23.73
2018-11-20T08:26:06.786Z,23.47
2018-11-20T08:28:53.755Z,23.80
2018-11-20T08:31:53.997Z,22.67
2018-11-20T08:35:00.595Z,23.17
2018-11-20T08:37:39.540Z,23.07
2018-11-20T08:40:29.510Z,23.10
2018-11-20T08:43:16.651Z,23.73
2018-11-20T08:46:08.031Z,24.07
2018-11-20T08:48:59.183Z,22.07
2018-11-20T08:51:53.556Z,23.63
2018-11-20T08:54:50.831Z,23.23
2018-11-20T08:57:52.371Z,24.37
2018-11-20T09:00:35.356Z,23.57
2018-11-20T09:03:22.431Z,23.37
2018-11-20T09:06:09.228Z,23.37
2018-11-20T09:09:06.586Z,23.07
2018-11-20T09:11:53.360Z,22.73
2018-11-20T09:14:40.660Z,23.20
2018-11-20T09:17:47.434Z,24.97
2018-11-20T09:20:40.204Z,23.23
2018-11-20T09:23:32.464Z,22.87
2018-11-20T09:26:19.767Z,23.57
2018-11-20T09:29:08.126Z,23.73
2018-11-20T09:31:58.203Z,23.77
2018-11-20T09:34:54.709Z,23.93
2018-11-20T09:37:58.411Z,23.07
2018-11-20T09:41:18.699Z,23.33
2018-11-20T09:44:45.703Z,23.47
2018-11-20T09:47:32.634Z,24.33
2018-11-20T09:50:30.081Z,24.27
2018-11-20T09:53:17.514Z,22.83
2018-11-20T09:56:19.154Z,24.07
2018-11-20T09:59:05.466Z,22.13
2018-11-20T10:01:59.522Z,24.80
2018-11-20T10:05:02.888Z,23.47
2018-11-20T10:07:46.151Z,22.97
2018-11-20T10:10:32.947Z,22.80
2018-11-20T10:13:12.381Z,22.53
2018-11-20T10:16:09.816Z,23.77
2018-11-20T10:19:04.131Z,24.03
2018-11-20T10:21:55.575Z,24.10
2018-11-20T10:24:52.686Z,22.87
2018-11-20T10:27:46.782Z,23.03
2018-11-20T10:30:41.253Z,24.73
2018-11-20T10:33:35.745Z,23.27
2018-11-20T10:36:30.268Z,22.93
2018-11-20T10:39:21.750Z,23.10
2018-11-20T10:42:04.803Z,24.20
2018-11-20T10:44:43.507Z,23.47
2018-11-20T10:47:30.534Z,23.70
2018-11-20T10:50:19.155Z,23.37
2018-11-20T10:53:06.134Z,24.27
2018-11-20T10:55:42.641Z,23.50
2018-11-20T10:58:29.625Z,24.30
2018-11-20T11:01:16.852Z,24.03
2018-11-20T11:04:23.447Z,24.47
2018-11-20T11:07:01.892Z,25.27
2018-11-20T11:09:43.461Z,23.57
2018-11-20T11:12:31.878Z,23.47
2018-11-20T11:15:25.788Z,22.87
2018-11-20T11:18:26.914Z,23.13
2018-11-20T11:21:13.907Z,23.73
2018-11-20T11:24:11.521Z,22.73
2018-11-20T11:26:54.832Z,22.70
2018-11-20T11:29:49.402Z,23.47
2018-11-20T11:32:37.744Z,22.83
2018-11-20T11:35:25.489Z,24.57
2018-11-20T11:38:14.162Z,23.27
2018-11-20T11:40:58.490Z,23.17
2018-11-20T11:43:56.267Z,24.33
2018-11-20T11:46:44.613Z,24.40
2018-11-20T11:49:45.611Z,25.27
2018-11-20T11:52:33.998Z,23.87
2018-11-20T11:55:40.540Z,24.53
2018-11-20T11:58:27.591Z,24.73
2018-11-20T12:01:19.210Z,24.43
2018-11-20T12:06:48.037Z,24.93
2018-11-20T12:09:39.259Z,22.87
2018-11-20T12:12:26.783Z,24.27
2018-11-20T12:15:24.364Z,21.63
2018-11-20T12:18:11.301Z,24.60
2018-11-20T12:21:05.738Z,23.60
2018-11-20T12:24:00.042Z,23.87
2018-11-20T12:26:54.635Z,24.37
2018-11-20T12:30:01.226Z,22.43
2018-11-20T12:32:53.821Z,23.90
2018-11-20T12:35:40.909Z,22.80
2018-11-20T12:38:30.398Z,24.30
2018-11-20T12:41:31.106Z,24.27
2018-11-20T12:44:25.836Z,23.33
2018-11-20T12:47:29.408Z,22.57
2018-11-20T12:50:53.188Z,24.80
2018-11-20T12:53:43.717Z,24.23
2018-11-20T12:56:34.089Z,23.57
2018-11-20T12:59:20.927Z,23.83
2018-11-20T13:02:08.837Z,23.37
2018-11-20T13:05:05.226Z,25.00
2018-11-20T13:07:58.535Z,23.23
2018-11-20T13:10:44.755Z,22.57
2018-11-20T13:13:30.693Z,24.73
2018-11-20T13:16:18.245Z,23.53
2018-11-20T13:18:59.314Z,23.53
2018-11-20T13:21:44.717Z,24.30
2018-11-20T13:24:32.707Z,24.33
2018-11-20T13:27:35.260Z,25.30
2018-11-20T13:30:21.477Z,25.20
2018-11-20T13:32:57.950Z,24.80
2018-11-20T13:35:41.946Z,24.77
2018-11-20T13:38:29.362Z,24.37
2018-11-20T13:41:53.041Z,23.40
2018-11-20T13:44:36.872Z,24.40
2018-11-20T13:47:27.375Z,26.30
2018-11-20T13:50:08.745Z,24.63
2018-11-20T13:52:54.878Z,24.50
2018-11-20T13:55:39.726Z,24.77
2018-11-20T13:58:42.430Z,24.00
2018-11-20T14:01:30.317Z,24.70
2018-11-20T14:04:18.287Z,24.23
2018-11-20T14:07:12.028Z,24.63
2018-11-20T14:10:05.835Z,24.77
2018-11-20T14:12:52.586Z,24.77
2018-11-20T14:15:39.069Z,24.37
2018-11-20T14:18:32.764Z,23.53
2018-11-20T14:21:26.640Z,24.23
2018-11-20T14:24:26.079Z,25.30
2018-11-20T14:27:17.387Z,24.20
2018-11-20T14:30:03.604Z,25.03
2018-11-20T14:32:43.479Z,24.53
2018-11-20T14:35:34.185Z,24.00
2018-11-20T14:38:20.416Z,25.80
2018-11-20T14:41:08.069Z,23.40
2018-11-20T14:43:58.291Z,25.43
2018-11-20T14:46:44.629Z,23.83
2018-11-20T14:49:27.963Z,25.23
2018-11-20T14:52:14.888Z,24.97
2018-11-20T14:55:01.716Z,25.70
2018-11-20T14:57:47.915Z,25.97
2018-11-20T15:00:47.493Z,24.57
2018-11-20T15:03:33.266Z,24.63
2018-11-20T15:06:38.917Z,25.70
2018-11-20T15:09:33.908Z,25.83
2018-11-20T15:12:20.816Z,26.90
2018-11-20T15:15:07.183Z,26.00
2018-11-20T15:18:09.928Z,26.57
2018-11-20T15:21:00.450Z,25.50
2018-11-20T15:23:41.461Z,25.83
2018-11-20T15:26:35.140Z,24.43
2018-11-20T15:29:25.401Z,25.03
2018-11-20T15:32:15.684Z,26.57
2018-11-20T15:35:03.218Z,32.13
2018-11-20T15:37:56.512Z,26.90
2018-11-20T15:40:47.066Z,27.53
2018-11-20T15:43:22.668Z,29.47
2018-11-20T15:46:09.015Z,26.07
2018-11-20T15:48:55.384Z,25.97
2018-11-20T15:51:45.653Z,26.20
2018-11-20T15:54:28.080Z,26.20
2018-11-20T15:57:14.252Z,26.20
2018-11-20T16:00:13.917Z,26.40
2018-11-20T16:03:23.018Z,26.77
2018-11-20T16:05:56.771Z,26.77
2018-11-20T16:08:47.066Z,26.97
2018-11-20T16:11:27.336Z,26.43
2018-11-20T16:14:24.164Z,28.43
2018-11-20T16:17:27.061Z,26.17
2018-11-20T16:20:23.693Z,26.40
2018-11-20T16:23:11.223Z,28.40
2018-11-20T16:26:17.455Z,28.57
2018-11-20T16:29:04.059Z,27.77
2018-11-20T16:32:03.841Z,27.47
2018-11-20T16:34:50.067Z,29.13
2018-11-20T16:37:46.719Z,27.53
2018-11-20T16:40:33.320Z,28.57
2018-11-20T16:43:24.761Z,29.33
2018-11-20T16:46:10.918Z,27.37
2018-11-20T16:48:58.484Z,27.70
2018-11-20T16:51:58.018Z,28.70
2018-11-20T16:54:54.594Z,28.53
2018-11-20T16:57:45.319Z,26.53
2018-11-20T17:00:32.920Z,28.40
2018-11-20T17:03:35.535Z,29.57
2018-11-20T17:06:21.723Z,26.83
2018-11-20T17:09:17.904Z,28.03
2018-11-20T17:12:05.090Z,29.43
2018-11-20T17:14:57.456Z,29.00
2018-11-20T17:17:43.671Z,28.37
2018-11-20T17:20:35.968Z,28.23
2018-11-20T17:23:35.841Z,28.03
2018-11-20T17:26:29.127Z,30.43
2018-11-20T17:29:15.525Z,29.83
2018-11-20T17:32:15.543Z,31.03
2018-11-20T17:35:01.404Z,30.43
2018-11-20T17:37:55.667Z,30.97
2018-11-20T17:40:43.167Z,30.57
2018-11-20T17:43:29.672Z,30.57
2018-11-20T17:46:17.268Z,29.70
2018-11-20T17:49:03.296Z,30.77
2018-11-20T17:51:49.838Z,32.33
2018-11-20T17:54:37.362Z,31.83
2018-11-20T17:57:23.943Z,32.00
2018-11-20T18:00:14.869Z,31.37
2018-11-20T18:03:05.763Z,36.97
2018-11-20T18:05:53.216Z,36.10
2018-11-20T18:08:39.931Z,37.27
2018-11-20T18:11:26.040Z,32.03
2018-11-20T18:14:07.929Z,33.00
2018-11-20T18:17:04.267Z,30.93
2018-11-20T18:19:47.107Z,31.13
2018-11-20T18:22:37.631Z,31.73
2018-11-20T18:25:25.786Z,31.73
2018-11-20T18:28:22.619Z,33.10
2018-11-20T18:31:09.022Z,30.13
2018-11-20T18:34:05.613Z,30.53
2018-11-20T18:36:53.018Z,30.30
2018-11-20T18:39:42.191Z,33.43
2018-11-20T18:42:48.133Z,30.67
2018-11-20T18:45:34.665Z,30.27
2018-11-20T18:48:25.549Z,31.63
2018-11-20T18:51:17.915Z,31.60
2018-11-20T18:54:04.521Z,33.60
2018-11-20T18:56:50.551Z,31.83
2018-11-20T18:59:56.982Z,30.53
2018-11-20T19:02:53.145Z,31.10
2018-11-20T19:05:39.560Z,31.10
2018-11-20T19:08:32.945Z,32.17
2018-11-20T19:11:19.382Z,32.40
2018-11-20T19:14:19.382Z,32.57
2018-11-20T19:17:25.060Z,32.33
2018-11-20T19:20:10.074Z,33.63
2018-11-20T19:22:56.002Z,33.73
2018-11-20T19:25:49.558Z,33.27
2018-11-20T19:28:38.232Z,31.13
2018-11-20T19:31:41.187Z,33.67
2018-11-20T19:34:20.736Z,31.33
2018-11-20T19:37:07.756Z,31.13
2018-11-20T19:39:58.741Z,31.77
2018-11-20T19:42:46.280Z,30.97
2018-11-20T19:45:27.861Z,31.43
2018-11-20T19:48:14.413Z,31.57
2018-11-20T19:51:01.961Z,31.03
2018-11-20T19:53:48.119Z,31.67
2018-11-20T19:56:34.481Z,30.43
2018-11-20T19:59:40.233Z,31.37
2018-11-20T20:02:42.935Z,30.83
2018-11-20T20:05:29.373Z,30.27
2018-11-20T20:08:15.511Z,30.60
2018-11-20T20:11:12.189Z,30.53
2018-11-20T20:13:58.834Z,30.97
2018-11-20T20:16:50.591Z,29.10
2018-11-20T20:19:44.091Z,29.87
2018-11-20T20:22:31.993Z,29.90
2018-11-20T20:25:18.358Z,29.07
2018-11-20T20:28:04.783Z,29.60
2018-11-20T20:30:51.232Z,31.43
2018-11-20T20:33:39.143Z,30.83
2018-11-20T20:36:32.641Z,29.83
2018-11-20T20:39:19.253Z,30.37
2018-11-20T20:42:19.241Z,31.00
2018-11-20T20:45:05.524Z,30.07
2018-11-20T20:47:45.942Z,30.37
2018-11-20T20:50:33.494Z,29.47
2018-11-20T20:53:20.995Z,29.33
2018-11-20T20:56:05.366Z,30.30
2018-11-20T20:59:01.854Z,29.43
2018-11-20T21:01:48.406Z,31.33
2018-11-20T21:04:30.600Z,30.47
2018-11-20T21:07:36.218Z,31.80
2018-11-20T21:10:24.126Z,30.73
2018-11-20T21:13:14.707Z,31.00
2018-11-20T21:16:01.290Z,30.60
2018-11-20T21:18:47.528Z,30.10
2018-11-20T21:21:27.943Z,30.33
2018-11-20T21:24:18.986Z,31.47
2018-11-20T21:27:06.059Z,30.37
2018-11-20T21:30:02.924Z,30.70
2018-11-20T21:32:50.509Z,31.57
2018-11-20T21:35:36.752Z,32.53
2018-11-20T21:38:26.810Z,32.33
2018-11-20T21:41:33.063Z,34.97
2018-11-20T21:44:19.244Z,36.87
2018-11-20T21:46:58.645Z,33.47
2018-11-20T21:49:45.041Z,33.80
2018-11-20T21:52:41.490Z,34.10
2018-11-20T21:55:41.176Z,34.43
2018-11-20T21:58:24.056Z,33.83
2018-11-20T22:01:11.394Z,31.63
2018-11-20T22:03:57.612Z,34.00
2018-11-20T22:06:47.944Z,33.50
2018-11-20T22:09:38.120Z,32.93
2018-11-20T22:12:24.382Z,34.23
2018-11-20T22:15:17.676Z,33.13
2018-11-20T22:18:11.306Z,32.83
2018-11-20T22:20:57.721Z,32.23
2018-11-20T22:23:43.886Z,31.63
2018-11-20T22:26:31.410Z,33.03
2018-11-20T22:29:18.914Z,32.93
2018-11-20T22:32:15.230Z,33.50
2018-11-20T22:35:06.790Z,31.50
2018-11-20T22:37:54.325Z,32.90
2018-11-20T22:40:47.716Z,32.37
2018-11-20T22:43:53.653Z,32.40
2018-11-20T22:46:43.764Z,32.03
2018-11-20T22:49:31.293Z,33.93
2018-11-20T22:52:21.377Z,32.53
2018-11-20T22:55:07.674Z,31.67
2018-11-20T22:57:53.673Z,32.40
2018-11-20T23:00:41.295Z,33.17
2018-11-20T23:03:44.207Z,31.53
2018-11-20T23:06:36.535Z,32.27
2018-11-20T23:09:06.554Z,33.10
2018-11-20T23:11:34.927Z,32.20
2018-11-20T23:14:03.271Z,32.27
2018-11-20T23:16:31.651Z,30.00
2018-11-20T23:19:00.399Z,32.30
2018-11-20T23:21:28.849Z,32.00
2018-11-20T23:23:57.215Z,32.37
2018-11-20T23:26:25.990Z,33.13
2018-11-20T23:28:54.343Z,31.93
2018-11-20T23:31:22.742Z,32.83
2018-11-20T23:33:51.187Z,32.63
2018-11-20T23:36:19.569Z,32.80
2018-11-20T23:38:48.221Z,32.13
2018-11-20T23:41:16.679Z,32.90
2018-11-20T23:43:45.104Z,33.53
2018-11-20T23:46:13.529Z,33.47
2018-11-20T23:48:42.324Z,33.07
2018-11-20T23:51:10.719Z,33.27
2018-11-20T23:53:39.090Z,32.80
2018-11-20T23:56:08.166Z,32.53
2018-11-20T23:58:36.516Z,33.73
